Welcome!

Visit our other weather sites:

Template documentation
and downloads

And another site



There are no active watches, warnings or advisories

Select another period ( hide this area )

Units Period Custom range Directly to
Metric English Both
Daily Weekly Monthly Yearly
use both date-selectors for a custom range
previous Day
With this date

WeatherUnderground graphs for this period ( click here )


Daily Summary for Wednesday Jan 16 2019
Time Temp. ( °C ) Dew pt. ( °C ) Wind ( km/h ) from Gust ( km/h ) Pressure ( hPa ) Humid.( % ) Rainrate ( cm )
High-2,1 -3,4 33,8 East ( 869/2603 ) 28,6 1024,9 94 -
Average-3,3 -4,3 20,6 East #76/204 16,4 1022,6 93 -
Low-3,9 -4,9 11,3   7,4 1020,9 89 -
Daily Tabular details for Wednesday Jan 16 2019
Time Temp. ( °C ) Dew pt. ( °C ) Wind ( km/h ) from Gust ( km/h ) Pressure ( hPa ) Humid.( % ) Rainrate ( cm )
00:04 -2,4 -4,0 20,4 NNE 14,0 1023,9 89 -
00:09 -2,6 -4,1 18,5 NNE 13,4 1023,9 89 -
00:14 -2,7 -4,2 17,7 NNE 15,4 1023,9 89 -
00:19 -2,7 -4,2 11,3 NE 11,3 1023,9 89 -
00:24 -2,9 -4,5 33,8 NNE 26,7 1023,9 89 -
00:29 -3,0 -4,3 32,2 NNE 28,6 1023,9 91 -
00:34 -2,9 -4,2 31,5 NNE 26,6 1024,3 91 -
00:39 -2,8 -4,1 27,8 North 22,7 1024,3 91 -
00:44 -2,8 -4,1 29,0 NNE 21,6 1023,9 91 -
00:49 -2,7 -3,8 25,9 NNE 19,6 1024,3 92 -
00:54 -2,6 -3,7 25,9 NNE 23,7 1024,3 92 -
00:59 -2,6 -3,7 25,9 NE 17,5 1024,3 92 -
01:04 -2,5 -3,8 27,8 NNE 18,8 1023,9 91 -
01:09 -2,4 -3,7 31,5 NNE 26,1 1023,9 91 -
01:14 -2,4 -3,7 25,9 NE 19,6 1023,9 91 -
01:19 -2,3 -3,6 24,1 NNE 20,8 1023,9 91 -
01:24 -2,3 -3,6 27,8 NE 24,1 1023,9 91 -
01:29 -2,3 -3,6 29,6 NNE 22,2 1023,9 91 -
01:34 -2,2 -3,5 29,6 NNE 21,9 1023,9 91 -
01:39 -2,2 -3,4 25,9 NNE 20,0 1023,9 91 -
01:44 -2,2 -3,4 14,8 NNE 12,7 1024,3 91 -
01:49 -2,1 -3,4 13,0 NE 8,7 1024,3 91 -
01:54 -2,2 -3,4 22,5 NE 19,0 1023,9 91 -
01:59 -2,2 -3,4 27,8 NE 20,3 1023,9 91 -
02:04 -2,2 -3,4 24,1 NE 20,9 1024,3 91 -
02:09 -2,2 -3,4 24,1 NNE 17,7 1024,3 91 -
02:14 -2,1 -3,4 20,4 NNE 16,4 1024,3 91 -
02:19 -2,1 -3,4 19,3 NE 15,1 1024,6 91 -
02:24 -2,1 -3,4 24,1 NE 19,6 1024,6 91 -
02:29 -2,2 -3,4 24,1 NE 20,9 1024,3 91 -
02:34 -2,1 -3,4 20,9 NE 17,9 1024,3 91 -
02:39 -2,2 -3,4 22,2 NE 19,5 1024,3 91 -
02:44 -2,2 -3,4 24,1 NE 20,0 1023,9 91 -
02:49 -2,2 -3,5 20,9 NE 18,5 1023,9 91 -
02:54 -2,2 -3,5 25,9 NNE 21,6 1023,9 91 -
02:59 -2,2 -3,5 24,1 NNE 20,0 1024,3 91 -
03:04 -2,3 -3,6 27,8 NE 21,1 1024,3 91 -
03:09 -2,4 -3,7 25,9 NE 20,9 1024,3 91 -
03:14 -2,4 -3,7 25,9 NE 20,4 1024,6 91 -
03:19 -2,5 -3,8 27,8 NE 23,0 1024,6 91 -
03:24 -2,6 -3,8 25,9 ENE 22,0 1024,6 91 -
03:29 -2,6 -3,8 22,5 ENE 20,1 1024,6 91 -
03:34 -2,6 -3,7 27,8 ENE 21,1 1024,6 92 -
03:39 -2,6 -3,7 22,2 NE 19,0 1024,6 92 -
03:44 -2,6 -3,7 25,9 NE 18,3 1024,6 92 -
03:49 -2,7 -3,8 19,3 ENE 15,8 1024,9 92 -
03:54 -2,7 -3,8 20,9 NNE 17,5 1024,9 92 -
03:59 -2,8 -3,9 18,5 NNE 14,2 1024,9 92 -
04:04 -2,8 -3,9 22,2 NE 16,3 1024,9 92 -
04:09 -2,9 -4,1 19,3 NE 15,4 1024,9 92 -
04:14 -3,0 -4,1 20,4 NE 17,2 1024,9 92 -
04:19 -3,1 -4,2 20,9 NE 17,2 1024,6 92 -
04:24 -3,1 -4,2 18,5 NNE 14,0 1024,6 92 -
04:29 -3,1 -4,2 16,7 NE 12,1 1024,6 92 -
04:34 -3,1 -4,1 20,4 NE 15,3 1024,6 93 -
04:39 -3,1 -4,2 18,5 NNE 15,8 1024,6 92 -
04:44 -3,2 -4,3 22,2 NNE 17,1 1024,6 92 -
04:49 -3,2 -4,3 16,7 NNE 13,4 1024,3 92 -
04:54 -3,2 -4,3 16,7 NNE 11,1 1024,3 92 -
04:59 -3,2 -4,1 20,4 ENE 15,6 1024,3 93 -
05:04 -3,3 -4,2 22,5 ENE 19,5 1024,3 93 -
05:09 -3,3 -4,2 24,1 ENE 21,9 1024,3 93 -
05:14 -3,3 -4,3 22,5 ENE 18,7 1023,9 93 -
05:19 -3,3 -4,3 22,5 NE 19,2 1024,3 93 -
05:24 -3,4 -4,3 24,1 NE 15,0 1024,3 93 -
05:29 -3,4 -4,4 18,5 NNE 15,8 1023,9 93 -
05:34 -3,5 -4,4 18,5 NE 13,8 1023,9 93 -
05:39 -3,6 -4,5 22,5 ENE 19,8 1023,9 93 -
05:44 -3,6 -4,6 18,5 NE 12,4 1023,9 93 -
05:49 -3,6 -4,5 19,3 NE 14,3 1023,9 93 -
05:54 -3,6 -4,5 20,4 NE 19,2 1023,9 93 -
05:59 -3,6 -4,5 22,5 ENE 18,5 1024,3 93 -
06:04 -3,6 -4,5 16,7 ENE 15,0 1024,3 93 -
06:09 -3,6 -4,5 19,3 ENE 17,7 1023,9 93 -
06:14 -3,6 -4,5 24,1 ENE 21,9 1023,9 93 -
06:19 -3,6 -4,5 20,9 ENE 16,1 1023,9 93 -
06:24 -3,6 -4,5 25,9 ENE 20,8 1023,9 93 -
06:29 -3,6 -4,5 24,1 ENE 18,2 1023,9 93 -
06:34 -3,6 -4,5 22,2 ENE 17,4 1024,3 93 -
06:39 -3,6 -4,6 20,9 ENE 13,5 1024,3 93 -
06:44 -3,6 -4,6 18,5 ENE 15,4 1024,3 93 -
06:49 -3,6 -4,6 17,7 NE 14,3 1024,3 93 -
06:54 -3,6 -4,6 18,5 NE 13,8 1024,3 93 -
06:59 -3,7 -4,6 18,5 NE 12,6 1024,3 93 -
07:04 -3,7 -4,6 22,5 East 19,3 1024,3 93 -
07:09 -3,7 -4,7 22,2 ENE 16,9 1024,3 93 -
07:14 -3,8 -4,7 25,9 East 17,4 1024,3 93 -
07:19 -3,7 -4,7 16,7 NE 14,0 1024,3 93 -
07:24 -3,7 -4,7 22,2 ENE 18,8 1024,3 93 -
07:29 -3,8 -4,7 31,5 East 20,9 1023,9 93 -
07:34 -3,9 -4,8 29,6 East 24,1 1023,9 93 -
07:39 -3,9 -4,8 25,9 ENE 22,2 1023,9 93 -
07:44 -3,9 -4,8 25,7 ENE 21,7 1023,6 93 -
07:49 -3,9 -4,8 25,9 ENE 23,3 1023,9 93 -
07:54 -3,9 -4,9 22,5 ENE 19,3 1023,9 93 -
07:59 -3,9 -4,9 24,1 ENE 19,8 1023,9 93 -
08:04 -3,9 -4,9 22,5 ENE 19,3 1024,3 93 -
08:09 -3,9 -4,8 24,1 ENE 19,6 1024,3 94 -
08:14 -3,9 -4,9 18,5 ENE 12,9 1024,3 93 -
08:19 -3,9 -4,8 24,1 ENE 20,3 1024,3 94 -
08:24 -3,9 -4,7 20,4 ENE 18,0 1024,3 94 -
08:29 -3,9 -4,9 18,5 NE 15,8 1024,6 93 -
08:34 -3,9 -4,9 16,7 ENE 13,2 1024,3 93 -
08:39 -3,9 -4,9 24,1 East 19,8 1024,3 93 -
08:44 -3,9 -4,9 22,2 ENE 17,7 1023,9 93 -
08:49 -3,9 -4,8 20,4 ENE 15,9 1024,3 93 -
08:54 -3,9 -4,8 22,2 ESE 17,4 1024,3 93 -
08:59 -3,9 -4,9 24,1 East 22,0 1024,3 93 -
09:04 -3,9 -4,9 20,4 East 14,0 1024,3 93 -
09:09 -3,9 -4,9 22,2 East 16,6 1024,3 93 -
09:14 -3,9 -4,8 20,4 ENE 15,8 1023,9 93 -
09:19 -3,9 -4,8 22,2 ENE 20,6 1023,9 93 -
09:24 -3,9 -4,8 20,9 ENE 15,9 1023,9 93 -
09:29 -3,9 -4,8 20,4 ENE 16,7 1023,9 93 -
09:34 -3,8 -4,8 20,9 ENE 18,5 1023,6 93 -
09:39 -3,8 -4,7 27,8 East 22,7 1023,9 93 -
09:44 -3,8 -4,8 22,2 East 20,9 1023,9 93 -
09:49 -3,8 -4,8 20,4 East 15,0 1024,3 93 -
09:54 -3,9 -4,8 22,5 East 20,4 1024,3 93 -
09:59 -3,9 -4,8 20,9 East 16,1 1024,3 93 -
10:04 -3,9 -4,8 18,5 East 15,3 1024,3 93 -
10:09 -3,9 -4,8 22,2 East 16,7 1024,3 93 -
10:14 -3,8 -4,8 18,5 East 14,5 1024,6 93 -
10:19 -3,8 -4,8 20,4 East 15,0 1024,6 93 -
10:24 -3,8 -4,8 20,9 East 18,8 1024,6 93 -
10:29 -3,8 -4,8 16,7 East 12,2 1024,6 93 -
10:34 -3,8 -4,8 20,4 East 16,7 1024,3 93 -
10:39 -3,8 -4,7 20,4 East 15,1 1024,3 93 -
10:44 -3,8 -4,7 24,1 East 15,4 1024,6 93 -
10:49 -3,8 -4,7 20,4 East 15,1 1024,6 93 -
10:54 -3,8 -4,7 18,5 ESE 16,6 1024,6 93 -
10:59 -3,7 -4,7 22,5 East 18,5 1024,6 93 -
11:04 -3,8 -4,7 18,5 ESE 15,0 1024,6 93 -
11:09 -3,8 -4,7 18,5 ESE 14,8 1024,3 93 -
11:14 -3,7 -4,7 22,2 ESE 15,6 1024,3 93 -
11:19 -3,8 -4,7 20,9 East 18,0 1024,3 93 -
11:24 -3,8 -4,7 20,4 East 15,3 1024,3 93 -
11:29 -3,7 -4,7 17,7 East 14,6 1024,3 93 -
11:34 -3,7 -4,6 17,7 East 14,6 1024,3 93 -
11:39 -3,8 -4,7 18,5 East 13,4 1023,9 93 -
11:44 -3,8 -4,7 20,9 East 14,3 1023,9 93 -
11:49 -3,8 -4,7 22,5 East 18,3 1023,6 93 -
11:54 -3,8 -4,7 17,7 East 15,0 1023,6 93 -
11:59 -3,8 -4,7 22,5 East 19,3 1023,6 93 -
12:04 -3,8 -4,7 22,5 ESE 18,8 1023,6 93 -
12:09 -3,8 -4,8 20,4 East 18,8 1023,2 93 -
12:14 -3,8 -4,8 22,2 ESE 20,6 1023,2 93 -
12:19 -3,8 -4,7 19,3 ESE 15,1 1022,9 93 -
12:24 -3,8 -4,8 19,3 ESE 12,2 1022,9 93 -
12:29 -3,9 -4,8 16,7 East 12,7 1022,6 93 -
12:34 -3,8 -4,8 16,7 East 15,0 1022,9 93 -
12:39 -3,8 -4,8 20,4 East 16,1 1022,6 93 -
12:44 -3,8 -4,7 18,5 East 12,9 1022,6 93 -
12:49 -3,8 -4,7 18,5 ESE 15,4 1022,2 93 -
12:54 -3,7 -4,7 18,5 East 14,0 1022,2 93 -
12:59 -3,7 -4,7 20,4 ESE 18,7 1022,2 93 -
13:04 -3,7 -4,6 18,5 East 11,7 1022,2 93 -
13:09 -3,7 -4,7 22,2 ESE 17,7 1021,9 93 -
13:14 -3,7 -4,6 14,8 ESE 11,1 1021,9 93 -
13:19 -3,6 -4,6 18,5 ESE 12,1 1021,9 93 -
13:24 -3,6 -4,5 18,5 ESE 15,0 1021,9 93 -
13:29 -3,6 -4,5 16,7 East 14,3 1022,2 93 -
13:34 -3,6 -4,5 16,7 ESE 9,2 1022,2 93 -
13:39 -3,6 -4,5 13,0 ESE 7,4 1021,9 93 -
13:44 -3,5 -4,4 14,8 East 12,1 1021,9 93 -
13:49 -3,4 -4,4 18,5 ESE 13,2 1021,9 93 -
13:54 -3,5 -4,4 16,1 ESE 14,6 1021,6 93 -
13:59 -3,5 -4,4 16,7 East 14,8 1021,6 93 -
14:04 -3,4 -4,3 16,7 East 11,9 1021,6 93 -
14:09 -3,3 -4,3 13,0 East 11,6 1021,6 93 -
14:14 -3,4 -4,3 18,5 East 12,7 1021,6 93 -
14:19 -3,4 -4,3 14,8 East 12,6 1021,6 93 -
14:24 -3,4 -4,3 13,0 East 10,6 1021,6 93 -
14:29 -3,4 -4,3 14,8 East 12,4 1021,6 93 -
14:34 -3,4 -4,3 11,3 East 9,5 1021,6 93 -
14:39 -3,3 -4,3 13,0 East 10,5 1021,6 93 -
14:44 -3,3 -4,3 14,8 East 10,1 1021,6 93 -
14:49 -3,3 -4,3 18,5 East 12,9 1021,2 93 -
14:54 -3,3 -4,1 13,0 East 9,7 1021,2 94 -
14:59 -3,3 -4,1 13,0 East 11,4 1021,2 94 -
15:04 -3,3 -4,2 16,7 East 12,6 1021,2 93 -
15:09 -3,3 -4,1 17,7 East 14,0 1021,2 94 -
15:14 -3,3 -4,2 16,7 East 11,3 1021,2 93 -
15:19 -3,2 -4,2 13,0 East 12,4 1021,2 93 -
15:24 -3,2 -4,1 16,7 East 12,9 1021,2 93 -
15:29 -3,2 -4,1 13,0 East 11,9 1021,2 93 -
15:34 -3,2 -4,2 16,7 East 13,2 1021,2 93 -
15:39 -3,2 -4,2 14,8 East 13,0 1021,2 93 -
15:44 -3,2 -4,2 16,7 East 14,2 1021,2 93 -
15:49 -3,2 -4,2 16,1 East 12,2 1021,2 93 -
15:54 -3,1 -4,1 14,5 East 11,9 1021,2 93 -
15:59 -3,1 -4,1 14,8 East 9,8 1021,2 93 -
16:04 -3,2 -4,1 16,7 East 13,8 1021,2 93 -
16:09 -3,2 -4,1 16,7 East 13,5 1021,2 93 -
16:14 -3,1 -4,1 14,8 East 12,6 1021,2 93 -
16:19 -3,1 -4,1 14,8 East 12,7 1020,9 93 -
16:24 -3,1 -4,0 14,8 East 12,2 1020,9 93 -
16:29 -3,0 -4,0 18,5 ENE 14,3 1020,9 93 -
16:34 -3,0 -4,0 14,8 East 13,7 1020,9 93 -
16:39 -2,9 -3,9 16,7 East 12,1 1020,9 93 -
16:44 -3,0 -3,8 16,7 East 12,6 1020,9 94 -
16:49 -3,0 -4,0 12,9 East 9,5 1020,9 93 -
16:54 -2,9 -3,9 16,1 ESE 12,6 1020,9 93 -
16:59 -3,0 -4,0 14,8 ESE 12,2 1020,9 93 -
Daily Summary for Wednesday Jan 16 2019
Time Temp. ( °C ) Dew pt. ( °C ) Wind ( km/h ) from Gust ( km/h ) Pressure ( hPa ) Humid.( % ) Rainrate ( cm )
High-2,1 -3,4 33,8 East ( 869/2603 ) 28,6 1024,9 94 -
Average-3,3 -4,3 20,6 East #76/204 16,4 1022,6 93 -
Low-3,9 -4,9 11,3   7,4 1020,9 89 -
Daily Tabular details for Wednesday Jan 16 2019
Time Temp. ( °C ) Dew pt. ( °C ) Wind ( km/h ) from Gust ( km/h ) Pressure ( hPa ) Humid.( % ) Rainrate ( cm )
00:04 -2,4 -4,0 20,4 NNE 14,0 1023,9 89 -
00:09 -2,6 -4,1 18,5 NNE 13,4 1023,9 89 -
00:14 -2,7 -4,2 17,7 NNE 15,4 1023,9 89 -
00:19 -2,7 -4,2 11,3 NE 11,3 1023,9 89 -
00:24 -2,9 -4,5 33,8 NNE 26,7 1023,9 89 -
00:29 -3,0 -4,3 32,2 NNE 28,6 1023,9 91 -
00:34 -2,9 -4,2 31,5 NNE 26,6 1024,3 91 -
00:39 -2,8 -4,1 27,8 North 22,7 1024,3 91 -
00:44 -2,8 -4,1 29,0 NNE 21,6 1023,9 91 -
00:49 -2,7 -3,8 25,9 NNE 19,6 1024,3 92 -
00:54 -2,6 -3,7 25,9 NNE 23,7 1024,3 92 -
00:59 -2,6 -3,7 25,9 NE 17,5 1024,3 92 -
01:04 -2,5 -3,8 27,8 NNE 18,8 1023,9 91 -
01:09 -2,4 -3,7 31,5 NNE 26,1 1023,9 91 -
01:14 -2,4 -3,7 25,9 NE 19,6 1023,9 91 -
01:19 -2,3 -3,6 24,1 NNE 20,8 1023,9 91 -
01:24 -2,3 -3,6 27,8 NE 24,1 1023,9 91 -
01:29 -2,3 -3,6 29,6 NNE 22,2 1023,9 91 -
01:34 -2,2 -3,5 29,6 NNE 21,9 1023,9 91 -
01:39 -2,2 -3,4 25,9 NNE 20,0 1023,9 91 -
01:44 -2,2 -3,4 14,8 NNE 12,7 1024,3 91 -
01:49 -2,1 -3,4 13,0 NE 8,7 1024,3 91 -
01:54 -2,2 -3,4 22,5 NE 19,0 1023,9 91 -
01:59 -2,2 -3,4 27,8 NE 20,3 1023,9 91 -
02:04 -2,2 -3,4 24,1 NE 20,9 1024,3 91 -
02:09 -2,2 -3,4 24,1 NNE 17,7 1024,3 91 -
02:14 -2,1 -3,4 20,4 NNE 16,4 1024,3 91 -
02:19 -2,1 -3,4 19,3 NE 15,1 1024,6 91 -
02:24 -2,1 -3,4 24,1 NE 19,6 1024,6 91 -
02:29 -2,2 -3,4 24,1 NE 20,9 1024,3 91 -
02:34 -2,1 -3,4 20,9 NE 17,9 1024,3 91 -
02:39 -2,2 -3,4 22,2 NE 19,5 1024,3 91 -
02:44 -2,2 -3,4 24,1 NE 20,0 1023,9 91 -
02:49 -2,2 -3,5 20,9 NE 18,5 1023,9 91 -
02:54 -2,2 -3,5 25,9 NNE 21,6 1023,9 91 -
02:59 -2,2 -3,5 24,1 NNE 20,0 1024,3 91 -
03:04 -2,3 -3,6 27,8 NE 21,1 1024,3 91 -
03:09 -2,4 -3,7 25,9 NE 20,9 1024,3 91 -
03:14 -2,4 -3,7 25,9 NE 20,4 1024,6 91 -
03:19 -2,5 -3,8 27,8 NE 23,0 1024,6 91 -
03:24 -2,6 -3,8 25,9 ENE 22,0 1024,6 91 -
03:29 -2,6 -3,8 22,5 ENE 20,1 1024,6 91 -
03:34 -2,6 -3,7 27,8 ENE 21,1 1024,6 92 -
03:39 -2,6 -3,7 22,2 NE 19,0 1024,6 92 -
03:44 -2,6 -3,7 25,9 NE 18,3 1024,6 92 -
03:49 -2,7 -3,8 19,3 ENE 15,8 1024,9 92 -
03:54 -2,7 -3,8 20,9 NNE 17,5 1024,9 92 -
03:59 -2,8 -3,9 18,5 NNE 14,2 1024,9 92 -
04:04 -2,8 -3,9 22,2 NE 16,3 1024,9 92 -
04:09 -2,9 -4,1 19,3 NE 15,4 1024,9 92 -
04:14 -3,0 -4,1 20,4 NE 17,2 1024,9 92 -
04:19 -3,1 -4,2 20,9 NE 17,2 1024,6 92 -
04:24 -3,1 -4,2 18,5 NNE 14,0 1024,6 92 -
04:29 -3,1 -4,2 16,7 NE 12,1 1024,6 92 -
04:34 -3,1 -4,1 20,4 NE 15,3 1024,6 93 -
04:39 -3,1 -4,2 18,5 NNE 15,8 1024,6 92 -
04:44 -3,2 -4,3 22,2 NNE 17,1 1024,6 92 -
04:49 -3,2 -4,3 16,7 NNE 13,4 1024,3 92 -
04:54 -3,2 -4,3 16,7 NNE 11,1 1024,3 92 -
04:59 -3,2 -4,1 20,4 ENE 15,6 1024,3 93 -
05:04 -3,3 -4,2 22,5 ENE 19,5 1024,3 93 -
05:09 -3,3 -4,2 24,1 ENE 21,9 1024,3 93 -
05:14 -3,3 -4,3 22,5 ENE 18,7 1023,9 93 -
05:19 -3,3 -4,3 22,5 NE 19,2 1024,3 93 -
05:24 -3,4 -4,3 24,1 NE 15,0 1024,3 93 -
05:29 -3,4 -4,4 18,5 NNE 15,8 1023,9 93 -
05:34 -3,5 -4,4 18,5 NE 13,8 1023,9 93 -
05:39 -3,6 -4,5 22,5 ENE 19,8 1023,9 93 -
05:44 -3,6 -4,6 18,5 NE 12,4 1023,9 93 -
05:49 -3,6 -4,5 19,3 NE 14,3 1023,9 93 -
05:54 -3,6 -4,5 20,4 NE 19,2 1023,9 93 -
05:59 -3,6 -4,5 22,5 ENE 18,5 1024,3 93 -
06:04 -3,6 -4,5 16,7 ENE 15,0 1024,3 93 -
06:09 -3,6 -4,5 19,3 ENE 17,7 1023,9 93 -
06:14 -3,6 -4,5 24,1 ENE 21,9 1023,9 93 -
06:19 -3,6 -4,5 20,9 ENE 16,1 1023,9 93 -
06:24 -3,6 -4,5 25,9 ENE 20,8 1023,9 93 -
06:29 -3,6 -4,5 24,1 ENE 18,2 1023,9 93 -
06:34 -3,6 -4,5 22,2 ENE 17,4 1024,3 93 -
06:39 -3,6 -4,6 20,9 ENE 13,5 1024,3 93 -
06:44 -3,6 -4,6 18,5 ENE 15,4 1024,3 93 -
06:49 -3,6 -4,6 17,7 NE 14,3 1024,3 93 -
06:54 -3,6 -4,6 18,5 NE 13,8 1024,3 93 -
06:59 -3,7 -4,6 18,5 NE 12,6 1024,3 93 -
07:04 -3,7 -4,6 22,5 East 19,3 1024,3 93 -
07:09 -3,7 -4,7 22,2 ENE 16,9 1024,3 93 -
07:14 -3,8 -4,7 25,9 East 17,4 1024,3 93 -
07:19 -3,7 -4,7 16,7 NE 14,0 1024,3 93 -
07:24 -3,7 -4,7 22,2 ENE 18,8 1024,3 93 -
07:29 -3,8 -4,7 31,5 East 20,9 1023,9 93 -
07:34 -3,9 -4,8 29,6 East 24,1 1023,9 93 -
07:39 -3,9 -4,8 25,9 ENE 22,2 1023,9 93 -
07:44 -3,9 -4,8 25,7 ENE 21,7 1023,6 93 -
07:49 -3,9 -4,8 25,9 ENE 23,3 1023,9 93 -
07:54 -3,9 -4,9 22,5 ENE 19,3 1023,9 93 -
07:59 -3,9 -4,9 24,1 ENE 19,8 1023,9 93 -
08:04 -3,9 -4,9 22,5 ENE 19,3 1024,3 93 -
08:09 -3,9 -4,8 24,1 ENE 19,6 1024,3 94 -
08:14 -3,9 -4,9 18,5 ENE 12,9 1024,3 93 -
08:19 -3,9 -4,8 24,1 ENE 20,3 1024,3 94 -
08:24 -3,9 -4,7 20,4 ENE 18,0 1024,3 94 -
08:29 -3,9 -4,9 18,5 NE 15,8 1024,6 93 -
08:34 -3,9 -4,9 16,7 ENE 13,2 1024,3 93 -
08:39 -3,9 -4,9 24,1 East 19,8 1024,3 93 -
08:44 -3,9 -4,9 22,2 ENE 17,7 1023,9 93 -
08:49 -3,9 -4,8 20,4 ENE 15,9 1024,3 93 -
08:54 -3,9 -4,8 22,2 ESE 17,4 1024,3 93 -
08:59 -3,9 -4,9 24,1 East 22,0 1024,3 93 -
09:04 -3,9 -4,9 20,4 East 14,0 1024,3 93 -
09:09 -3,9 -4,9 22,2 East 16,6 1024,3 93 -
09:14 -3,9 -4,8 20,4 ENE 15,8 1023,9 93 -
09:19 -3,9 -4,8 22,2 ENE 20,6 1023,9 93 -
09:24 -3,9 -4,8 20,9 ENE 15,9 1023,9 93 -
09:29 -3,9 -4,8 20,4 ENE 16,7 1023,9 93 -
09:34 -3,8 -4,8 20,9 ENE 18,5 1023,6 93 -
09:39 -3,8 -4,7 27,8 East 22,7 1023,9 93 -
09:44 -3,8 -4,8 22,2 East 20,9 1023,9 93 -
09:49 -3,8 -4,8 20,4 East 15,0 1024,3 93 -
09:54 -3,9 -4,8 22,5 East 20,4 1024,3 93 -
09:59 -3,9 -4,8 20,9 East 16,1 1024,3 93 -
10:04 -3,9 -4,8 18,5 East 15,3 1024,3 93 -
10:09 -3,9 -4,8 22,2 East 16,7 1024,3 93 -
10:14 -3,8 -4,8 18,5 East 14,5 1024,6 93 -
10:19 -3,8 -4,8 20,4 East 15,0 1024,6 93 -
10:24 -3,8 -4,8 20,9 East 18,8 1024,6 93 -
10:29 -3,8 -4,8 16,7 East 12,2 1024,6 93 -
10:34 -3,8 -4,8 20,4 East 16,7 1024,3 93 -
10:39 -3,8 -4,7 20,4 East 15,1 1024,3 93 -
10:44 -3,8 -4,7 24,1 East 15,4 1024,6 93 -
10:49 -3,8 -4,7 20,4 East 15,1 1024,6 93 -
10:54 -3,8 -4,7 18,5 ESE 16,6 1024,6 93 -
10:59 -3,7 -4,7 22,5 East 18,5 1024,6 93 -
11:04 -3,8 -4,7 18,5 ESE 15,0 1024,6 93 -
11:09 -3,8 -4,7 18,5 ESE 14,8 1024,3 93 -
11:14 -3,7 -4,7 22,2 ESE 15,6 1024,3 93 -
11:19 -3,8 -4,7 20,9 East 18,0 1024,3 93 -
11:24 -3,8 -4,7 20,4 East 15,3 1024,3 93 -
11:29 -3,7 -4,7 17,7 East 14,6 1024,3 93 -
11:34 -3,7 -4,6 17,7 East 14,6 1024,3 93 -
11:39 -3,8 -4,7 18,5 East 13,4 1023,9 93 -
11:44 -3,8 -4,7 20,9 East 14,3 1023,9 93 -
11:49 -3,8 -4,7 22,5 East 18,3 1023,6 93 -
11:54 -3,8 -4,7 17,7 East 15,0 1023,6 93 -
11:59 -3,8 -4,7 22,5 East 19,3 1023,6 93 -
12:04 -3,8 -4,7 22,5 ESE 18,8 1023,6 93 -
12:09 -3,8 -4,8 20,4 East 18,8 1023,2 93 -
12:14 -3,8 -4,8 22,2 ESE 20,6 1023,2 93 -
12:19 -3,8 -4,7 19,3 ESE 15,1 1022,9 93 -
12:24 -3,8 -4,8 19,3 ESE 12,2 1022,9 93 -
12:29 -3,9 -4,8 16,7 East 12,7 1022,6 93 -
12:34 -3,8 -4,8 16,7 East 15,0 1022,9 93 -
12:39 -3,8 -4,8 20,4 East 16,1 1022,6 93 -
12:44 -3,8 -4,7 18,5 East 12,9 1022,6 93 -
12:49 -3,8 -4,7 18,5 ESE 15,4 1022,2 93 -
12:54 -3,7 -4,7 18,5 East 14,0 1022,2 93 -
12:59 -3,7 -4,7 20,4 ESE 18,7 1022,2 93 -
13:04 -3,7 -4,6 18,5 East 11,7 1022,2 93 -
13:09 -3,7 -4,7 22,2 ESE 17,7 1021,9 93 -
13:14 -3,7 -4,6 14,8 ESE 11,1 1021,9 93 -
13:19 -3,6 -4,6 18,5 ESE 12,1 1021,9 93 -
13:24 -3,6 -4,5 18,5 ESE 15,0 1021,9 93 -
13:29 -3,6 -4,5 16,7 East 14,3 1022,2 93 -
13:34 -3,6 -4,5 16,7 ESE 9,2 1022,2 93 -
13:39 -3,6 -4,5 13,0 ESE 7,4 1021,9 93 -
13:44 -3,5 -4,4 14,8 East 12,1 1021,9 93 -
13:49 -3,4 -4,4 18,5 ESE 13,2 1021,9 93 -
13:54 -3,5 -4,4 16,1 ESE 14,6 1021,6 93 -
13:59 -3,5 -4,4 16,7 East 14,8 1021,6 93 -
14:04 -3,4 -4,3 16,7 East 11,9 1021,6 93 -
14:09 -3,3 -4,3 13,0 East 11,6 1021,6 93 -
14:14 -3,4 -4,3 18,5 East 12,7 1021,6 93 -
14:19 -3,4 -4,3 14,8 East 12,6 1021,6 93 -
14:24 -3,4 -4,3 13,0 East 10,6 1021,6 93 -
14:29 -3,4 -4,3 14,8 East 12,4 1021,6 93 -
14:34 -3,4 -4,3 11,3 East 9,5 1021,6 93 -
14:39 -3,3 -4,3 13,0 East 10,5 1021,6 93 -
14:44 -3,3 -4,3 14,8 East 10,1 1021,6 93 -
14:49 -3,3 -4,3 18,5 East 12,9 1021,2 93 -
14:54 -3,3 -4,1 13,0 East 9,7 1021,2 94 -
14:59 -3,3 -4,1 13,0 East 11,4 1021,2 94 -
15:04 -3,3 -4,2 16,7 East 12,6 1021,2 93 -
15:09 -3,3 -4,1 17,7 East 14,0 1021,2 94 -
15:14 -3,3 -4,2 16,7 East 11,3 1021,2 93 -
15:19 -3,2 -4,2 13,0 East 12,4 1021,2 93 -
15:24 -3,2 -4,1 16,7 East 12,9 1021,2 93 -
15:29 -3,2 -4,1 13,0 East 11,9 1021,2 93 -
15:34 -3,2 -4,2 16,7 East 13,2 1021,2 93 -
15:39 -3,2 -4,2 14,8 East 13,0 1021,2 93 -
15:44 -3,2 -4,2 16,7 East 14,2 1021,2 93 -
15:49 -3,2 -4,2 16,1 East 12,2 1021,2 93 -
15:54 -3,1 -4,1 14,5 East 11,9 1021,2 93 -
15:59 -3,1 -4,1 14,8 East 9,8 1021,2 93 -
16:04 -3,2 -4,1 16,7 East 13,8 1021,2 93 -
16:09 -3,2 -4,1 16,7 East 13,5 1021,2 93 -
16:14 -3,1 -4,1 14,8 East 12,6 1021,2 93 -
16:19 -3,1 -4,1 14,8 East 12,7 1020,9 93 -
16:24 -3,1 -4,0 14,8 East 12,2 1020,9 93 -
16:29 -3,0 -4,0 18,5 ENE 14,3 1020,9 93 -
16:34 -3,0 -4,0 14,8 East 13,7 1020,9 93 -
16:39 -2,9 -3,9 16,7 East 12,1 1020,9 93 -
16:44 -3,0 -3,8 16,7 East 12,6 1020,9 94 -
16:49 -3,0 -4,0 12,9 East 9,5 1020,9 93 -
16:54 -2,9 -3,9 16,1 ESE 12,6 1020,9 93 -
16:59 -3,0 -4,0 14,8 ESE 12,2 1020,9 93 -

Download your copy of this data-set  here

Our weather-data as stored at Weather Underground. Script developed by Jim McMurry. Adapted for the template by Leuven-Template.eu